sensor_id;sensor_type;location;lat;lon;timestamp;P1;durP1;ratioP1;P2;durP2;ratioP2
31004;SDS011;17676;52.254;4.490;2024-02-28T00:01:50;5.30;;;3.70;;
31004;SDS011;17676;52.254;4.490;2024-02-28T00:04:17;5.17;;;3.90;;
31004;SDS011;17676;52.254;4.490;2024-02-28T00:06:44;6.50;;;3.77;;
31004;SDS011;17676;52.254;4.490;2024-02-28T00:09:14;6.10;;;3.70;;
31004;SDS011;17676;52.254;4.490;2024-02-28T00:11:45;11.50;;;4.10;;
31004;SDS011;17676;52.254;4.490;2024-02-28T00:14:13;5.03;;;3.50;;
31004;SDS011;17676;52.254;4.490;2024-02-28T00:16:40;3.40;;;3.10;;
31004;SDS011;17676;52.254;4.490;2024-02-28T00:19:11;4.67;;;2.97;;
31004;SDS011;17676;52.254;4.490;2024-02-28T00:21:39;5.93;;;3.57;;
31004;SDS011;17676;52.254;4.490;2024-02-28T00:24:06;3.47;;;3.13;;
31004;SDS011;17676;52.254;4.490;2024-02-28T00:26:33;3.90;;;3.50;;
31004;SDS011;17676;52.254;4.490;2024-02-28T00:29:00;4.70;;;3.40;;
31004;SDS011;17676;52.254;4.490;2024-02-28T00:31:27;7.20;;;3.93;;
31004;SDS011;17676;52.254;4.490;2024-02-28T00:33:53;4.37;;;3.43;;
31004;SDS011;17676;52.254;4.490;2024-02-28T00:36:20;5.37;;;3.30;;
31004;SDS011;17676;52.254;4.490;2024-02-28T00:38:47;8.83;;;3.57;;
31004;SDS011;17676;52.254;4.490;2024-02-28T00:41:13;4.33;;;3.87;;
31004;SDS011;17676;52.254;4.490;2024-02-28T00:43:40;5.17;;;3.60;;
31004;SDS011;17676;52.254;4.490;2024-02-28T00:46:07;3.87;;;3.53;;
31004;SDS011;17676;52.254;4.490;2024-02-28T00:48:38;7.60;;;3.77;;
31004;SDS011;17676;52.254;4.490;2024-02-28T00:51:05;4.63;;;3.73;;
31004;SDS011;17676;52.254;4.490;2024-02-28T00:53:34;5.67;;;3.47;;
31004;SDS011;17676;52.254;4.490;2024-02-28T00:56:00;5.33;;;4.00;;
31004;SDS011;17676;52.254;4.490;2024-02-28T00:58:27;5.90;;;4.47;;
31004;SDS011;17676;52.254;4.490;2024-02-28T01:00:56;6.60;;;4.00;;
31004;SDS011;17676;52.254;4.490;2024-02-28T01:03:23;7.53;;;3.73;;
31004;SDS011;17676;52.254;4.490;2024-02-28T01:05:50;5.23;;;3.80;;
31004;SDS011;17676;52.254;4.490;2024-02-28T01:08:17;7.00;;;4.00;;
31004;SDS011;17676;52.254;4.490;2024-02-28T01:10:44;5.83;;;3.63;;
31004;SDS011;17676;52.254;4.490;2024-02-28T01:13:12;4.97;;;3.53;;
31004;SDS011;17676;52.254;4.490;2024-02-28T01:15:41;5.33;;;3.40;;
31004;SDS011;17676;52.254;4.490;2024-02-28T01:18:09;4.57;;;3.53;;
31004;SDS011;17676;52.254;4.490;2024-02-28T01:20:37;3.90;;;3.50;;
31004;SDS011;17676;52.254;4.490;2024-02-28T01:23:03;4.20;;;3.57;;
31004;SDS011;17676;52.254;4.490;2024-02-28T01:25:30;3.60;;;3.30;;
31004;SDS011;17676;52.254;4.490;2024-02-28T01:27:57;6.70;;;3.43;;
31004;SDS011;17676;52.254;4.490;2024-02-28T01:30:26;3.53;;;3.22;;
31004;SDS011;17676;52.254;4.490;2024-02-28T01:32:53;5.72;;;3.72;;
31004;SDS011;17676;52.254;4.490;2024-02-28T01:35:19;5.17;;;3.60;;
31004;SDS011;17676;52.254;4.490;2024-02-28T01:37:46;5.10;;;4.17;;
31004;SDS011;17676;52.254;4.490;2024-02-28T01:40:13;5.23;;;3.33;;
31004;SDS011;17676;52.254;4.490;2024-02-28T01:42:40;5.37;;;3.30;;
31004;SDS011;17676;52.254;4.490;2024-02-28T01:45:07;4.97;;;3.50;;
31004;SDS011;17676;52.254;4.490;2024-02-28T01:47:36;4.97;;;3.88;;
31004;SDS011;17676;52.254;4.490;2024-02-28T01:50:04;5.22;;;3.50;;
31004;SDS011;17676;52.254;4.490;2024-02-28T01:52:31;8.23;;;3.47;;
31004;SDS011;17676;52.254;4.490;2024-02-28T01:54:58;5.03;;;3.88;;
31004;SDS011;17676;52.254;4.490;2024-02-28T01:57:25;7.22;;;4.13;;
31004;SDS011;17676;52.254;4.490;2024-02-28T01:59:53;7.45;;;3.90;;
31004;SDS011;17676;52.254;4.490;2024-02-28T02:02:22;4.72;;;3.70;;
31004;SDS011;17676;52.254;4.490;2024-02-28T02:04:48;7.03;;;3.97;;
31004;SDS011;17676;52.254;4.490;2024-02-28T02:07:15;6.60;;;3.92;;
31004;SDS011;17676;52.254;4.490;2024-02-28T02:09:42;5.30;;;3.90;;
31004;SDS011;17676;52.254;4.490;2024-02-28T02:12:08;4.85;;;4.05;;
31004;SDS011;17676;52.254;4.490;2024-02-28T02:14:35;6.15;;;3.90;;
31004;SDS011;17676;52.254;4.490;2024-02-28T02:17:02;4.70;;;3.90;;
31004;SDS011;17676;52.254;4.490;2024-02-28T02:19:28;4.70;;;3.40;;
31004;SDS011;17676;52.254;4.490;2024-02-28T02:21:57;6.10;;;3.97;;
31004;SDS011;17676;52.254;4.490;2024-02-28T02:24:25;5.13;;;3.78;;
31004;SDS011;17676;52.254;4.490;2024-02-28T02:26:58;4.18;;;3.35;;
31004;SDS011;17676;52.254;4.490;2024-02-28T02:29:25;6.50;;;3.33;;
31004;SDS011;17676;52.254;4.490;2024-02-28T02:31:54;4.38;;;3.33;;
31004;SDS011;17676;52.254;4.490;2024-02-28T02:34:20;7.90;;;3.70;;
31004;SDS011;17676;52.254;4.490;2024-02-28T02:36:47;6.82;;;3.95;;
31004;SDS011;17676;52.254;4.490;2024-02-28T02:39:14;5.88;;;4.05;;
31004;SDS011;17676;52.254;4.490;2024-02-28T02:41:41;4.28;;;3.83;;
31004;SDS011;17676;52.254;4.490;2024-02-28T02:44:07;8.10;;;4.40;;
31004;SDS011;17676;52.254;4.490;2024-02-28T02:46:34;6.07;;;4.00;;
31004;SDS011;17676;52.254;4.490;2024-02-28T02:49:01;5.82;;;4.47;;
31004;SDS011;17676;52.254;4.490;2024-02-28T02:51:27;7.90;;;4.05;;
31004;SDS011;17676;52.254;4.490;2024-02-28T02:53:54;6.13;;;4.70;;
31004;SDS011;17676;52.254;4.490;2024-02-28T02:56:20;5.93;;;5.28;;
31004;SDS011;17676;52.254;4.490;2024-02-28T02:58:47;11.32;;;5.90;;
31004;SDS011;17676;52.254;4.490;2024-02-28T03:01:14;8.07;;;5.68;;
31004;SDS011;17676;52.254;4.490;2024-02-28T03:03:41;7.75;;;6.55;;
31004;SDS011;17676;52.254;4.490;2024-02-28T03:06:09;10.55;;;7.07;;
31004;SDS011;17676;52.254;4.490;2024-02-28T03:08:36;7.07;;;6.40;;
31004;SDS011;17676;52.254;4.490;2024-02-28T03:11:03;10.10;;;6.60;;
31004;SDS011;17676;52.254;4.490;2024-02-28T03:13:33;10.15;;;7.38;;
31004;SDS011;17676;52.254;4.490;2024-02-28T03:15:59;12.43;;;7.78;;
31004;SDS011;17676;52.254;4.490;2024-02-28T03:18:26;15.35;;;8.00;;
31004;SDS011;17676;52.254;4.490;2024-02-28T03:20:53;11.38;;;7.70;;
31004;SDS011;17676;52.254;4.490;2024-02-28T03:23:20;12.57;;;8.98;;
31004;SDS011;17676;52.254;4.490;2024-02-28T03:25:47;13.82;;;9.38;;
31004;SDS011;17676;52.254;4.490;2024-02-28T03:28:13;10.88;;;9.38;;
31004;SDS011;17676;52.254;4.490;2024-02-28T03:30:40;15.55;;;10.15;;
31004;SDS011;17676;52.254;4.490;2024-02-28T03:33:07;14.25;;;9.98;;
31004;SDS011;17676;52.254;4.490;2024-02-28T03:35:34;12.18;;;10.00;;
31004;SDS011;17676;52.254;4.490;2024-02-28T03:38:01;15.45;;;9.68;;
31004;SDS011;17676;52.254;4.490;2024-02-28T03:40:27;17.13;;;10.55;;
31004;SDS011;17676;52.254;4.490;2024-02-28T03:42:54;14.18;;;10.73;;
31004;SDS011;17676;52.254;4.490;2024-02-28T03:45:21;14.63;;;10.68;;
31004;SDS011;17676;52.254;4.490;2024-02-28T03:47:49;19.60;;;9.98;;
31004;SDS011;17676;52.254;4.490;2024-02-28T03:50:15;13.80;;;9.57;;
31004;SDS011;17676;52.254;4.490;2024-02-28T03:52:42;13.25;;;9.82;;
31004;SDS011;17676;52.254;4.490;2024-02-28T03:55:09;18.55;;;9.70;;
31004;SDS011;17676;52.254;4.490;2024-02-28T03:57:36;12.98;;;9.35;;
31004;SDS011;17676;52.254;4.490;2024-02-28T04:00:02;14.40;;;9.07;;
31004;SDS011;17676;52.254;4.490;2024-02-28T04:02:31;14.57;;;8.90;;
31004;SDS011;17676;52.254;4.490;2024-02-28T04:04:57;11.90;;;8.70;;
31004;SDS011;17676;52.254;4.490;2024-02-28T04:07:24;15.63;;;9.40;;
31004;SDS011;17676;52.254;4.490;2024-02-28T04:09:51;12.55;;;8.10;;
31004;SDS011;17676;52.254;4.490;2024-02-28T04:12:17;15.98;;;10.18;;
31004;SDS011;17676;52.254;4.490;2024-02-28T04:14:44;17.42;;;9.73;;
31004;SDS011;17676;52.254;4.490;2024-02-28T04:17:11;20.90;;;10.40;;
31004;SDS011;17676;52.254;4.490;2024-02-28T04:19:37;13.68;;;10.10;;
31004;SDS011;17676;52.254;4.490;2024-02-28T04:22:05;17.85;;;10.57;;
31004;SDS011;17676;52.254;4.490;2024-02-28T04:24:32;22.08;;;11.32;;
31004;SDS011;17676;52.254;4.490;2024-02-28T04:26:59;18.15;;;12.65;;
31004;SDS011;17676;52.254;4.490;2024-02-28T04:29:26;21.15;;;13.82;;
31004;SDS011;17676;52.254;4.490;2024-02-28T04:31:52;18.25;;;13.10;;
31004;SDS011;17676;52.254;4.490;2024-02-28T04:34:19;19.88;;;14.68;;
31004;SDS011;17676;52.254;4.490;2024-02-28T04:36:46;21.42;;;14.48;;
31004;SDS011;17676;52.254;4.490;2024-02-28T04:39:12;19.77;;;14.05;;
31004;SDS011;17676;52.254;4.490;2024-02-28T04:41:39;19.52;;;13.32;;
31004;SDS011;17676;52.254;4.490;2024-02-28T04:44:06;21.00;;;13.30;;
31004;SDS011;17676;52.254;4.490;2024-02-28T04:46:33;19.27;;;13.68;;
31004;SDS011;17676;52.254;4.490;2024-02-28T04:49:00;16.67;;;13.40;;
31004;SDS011;17676;52.254;4.490;2024-02-28T04:51:27;22.50;;;15.07;;
31004;SDS011;17676;52.254;4.490;2024-02-28T04:53:54;17.65;;;14.60;;
31004;SDS011;17676;52.254;4.490;2024-02-28T04:56:20;21.52;;;13.82;;
31004;SDS011;17676;52.254;4.490;2024-02-28T04:58:48;17.95;;;13.35;;
31004;SDS011;17676;52.254;4.490;2024-02-28T05:01:14;24.75;;;15.60;;
31004;SDS011;17676;52.254;4.490;2024-02-28T05:03:47;23.52;;;15.32;;
31004;SDS011;17676;52.254;4.490;2024-02-28T05:06:14;26.85;;;14.95;;
31004;SDS011;17676;52.254;4.490;2024-02-28T05:08:41;22.17;;;15.23;;
31004;SDS011;17676;52.254;4.490;2024-02-28T05:11:07;19.38;;;14.38;;
31004;SDS011;17676;52.254;4.490;2024-02-28T05:13:34;20.17;;;14.60;;
31004;SDS011;17676;52.254;4.490;2024-02-28T05:16:01;19.33;;;14.32;;
31004;SDS011;17676;52.254;4.490;2024-02-28T05:18:28;20.00;;;14.60;;
31004;SDS011;17676;52.254;4.490;2024-02-28T05:20:55;19.58;;;14.38;;
31004;SDS011;17676;52.254;4.490;2024-02-28T05:23:22;20.88;;;15.48;;
31004;SDS011;17676;52.254;4.490;2024-02-28T05:25:49;21.33;;;15.43;;
31004;SDS011;17676;52.254;4.490;2024-02-28T05:28:16;19.35;;;14.23;;
31004;SDS011;17676;52.254;4.490;2024-02-28T05:30:43;21.58;;;13.90;;
31004;SDS011;17676;52.254;4.490;2024-02-28T05:33:13;20.60;;;14.52;;
31004;SDS011;17676;52.254;4.490;2024-02-28T05:35:40;18.80;;;13.73;;
31004;SDS011;17676;52.254;4.490;2024-02-28T05:38:07;18.75;;;14.20;;
31004;SDS011;17676;52.254;4.490;2024-02-28T05:40:33;17.00;;;13.13;;
31004;SDS011;17676;52.254;4.490;2024-02-28T05:43:00;16.35;;;12.55;;
31004;SDS011;17676;52.254;4.490;2024-02-28T05:45:28;17.95;;;12.30;;
31004;SDS011;17676;52.254;4.490;2024-02-28T05:47:55;18.17;;;9.70;;
31004;SDS011;17676;52.254;4.490;2024-02-28T05:50:22;15.02;;;9.35;;
31004;SDS011;17676;52.254;4.490;2024-02-28T05:52:48;13.50;;;10.38;;
31004;SDS011;17676;52.254;4.490;2024-02-28T05:55:15;11.40;;;7.40;;
31004;SDS011;17676;52.254;4.490;2024-02-28T05:57:42;12.45;;;7.32;;
31004;SDS011;17676;52.254;4.490;2024-02-28T06:00:08;10.88;;;7.90;;
31004;SDS011;17676;52.254;4.490;2024-02-28T06:02:40;14.52;;;7.90;;
31004;SDS011;17676;52.254;4.490;2024-02-28T06:05:08;10.55;;;7.50;;
31004;SDS011;17676;52.254;4.490;2024-02-28T06:07:34;13.77;;;8.00;;
31004;SDS011;17676;52.254;4.490;2024-02-28T06:10:01;12.57;;;8.70;;
31004;SDS011;17676;52.254;4.490;2024-02-28T06:12:28;14.35;;;8.98;;
31004;SDS011;17676;52.254;4.490;2024-02-28T06:14:54;18.95;;;13.15;;
31004;SDS011;17676;52.254;4.490;2024-02-28T06:17:21;22.70;;;15.90;;
31004;SDS011;17676;52.254;4.490;2024-02-28T06:19:48;22.42;;;17.20;;
31004;SDS011;17676;52.254;4.490;2024-02-28T06:22:15;22.70;;;18.20;;
31004;SDS011;17676;52.254;4.490;2024-02-28T06:24:41;22.75;;;17.42;;
31004;SDS011;17676;52.254;4.490;2024-02-28T06:27:08;24.48;;;19.48;;
31004;SDS011;17676;52.254;4.490;2024-02-28T06:29:39;26.00;;;20.45;;
31004;SDS011;17676;52.254;4.490;2024-02-28T06:32:06;20.60;;;16.88;;
31004;SDS011;17676;52.254;4.490;2024-02-28T06:34:33;28.35;;;17.98;;
31004;SDS011;17676;52.254;4.490;2024-02-28T06:37:00;24.30;;;17.38;;
31004;SDS011;17676;52.254;4.490;2024-02-28T06:39:27;22.02;;;18.13;;
31004;SDS011;17676;52.254;4.490;2024-02-28T06:41:53;19.25;;;16.80;;
31004;SDS011;17676;52.254;4.490;2024-02-28T06:44:20;22.30;;;17.80;;
31004;SDS011;17676;52.254;4.490;2024-02-28T06:46:47;21.58;;;17.33;;
31004;SDS011;17676;52.254;4.490;2024-02-28T06:49:13;23.13;;;17.45;;
31004;SDS011;17676;52.254;4.490;2024-02-28T06:51:40;22.50;;;17.45;;
31004;SDS011;17676;52.254;4.490;2024-02-28T06:54:08;21.23;;;18.08;;
31004;SDS011;17676;52.254;4.490;2024-02-28T06:56:36;25.30;;;18.05;;
31004;SDS011;17676;52.254;4.490;2024-02-28T06:59:03;23.23;;;17.30;;
31004;SDS011;17676;52.254;4.490;2024-02-28T07:01:30;23.45;;;18.60;;
31004;SDS011;17676;52.254;4.490;2024-02-28T07:03:57;27.10;;;19.77;;
31004;SDS011;17676;52.254;4.490;2024-02-28T07:06:24;25.05;;;18.65;;
31004;SDS011;17676;52.254;4.490;2024-02-28T07:08:51;23.35;;;18.83;;
31004;SDS011;17676;52.254;4.490;2024-02-28T07:11:17;25.55;;;18.60;;
31004;SDS011;17676;52.254;4.490;2024-02-28T07:13:44;25.38;;;18.30;;
31004;SDS011;17676;52.254;4.490;2024-02-28T07:16:11;27.00;;;19.48;;
31004;SDS011;17676;52.254;4.490;2024-02-28T07:18:37;23.83;;;20.42;;
31004;SDS011;17676;52.254;4.490;2024-02-28T07:21:04;30.35;;;19.20;;
31004;SDS011;17676;52.254;4.490;2024-02-28T07:23:33;25.17;;;19.17;;
31004;SDS011;17676;52.254;4.490;2024-02-28T07:25:59;23.60;;;19.80;;
31004;SDS011;17676;52.254;4.490;2024-02-28T07:28:37;27.58;;;19.55;;
31004;SDS011;17676;52.254;4.490;2024-02-28T07:31:04;24.23;;;20.27;;
31004;SDS011;17676;52.254;4.490;2024-02-28T07:33:31;25.55;;;19.65;;
31004;SDS011;17676;52.254;4.490;2024-02-28T07:35:58;23.13;;;19.23;;
31004;SDS011;17676;52.254;4.490;2024-02-28T07:38:27;32.38;;;19.95;;
31004;SDS011;17676;52.254;4.490;2024-02-28T07:40:54;28.75;;;20.60;;
31004;SDS011;17676;52.254;4.490;2024-02-28T07:43:20;27.10;;;19.85;;
31004;SDS011;17676;52.254;4.490;2024-02-28T07:45:47;25.50;;;20.27;;
31004;SDS011;17676;52.254;4.490;2024-02-28T07:48:14;27.38;;;22.13;;
31004;SDS011;17676;52.254;4.490;2024-02-28T07:50:41;24.50;;;21.35;;
31004;SDS011;17676;52.254;4.490;2024-02-28T07:53:08;24.63;;;21.95;;
31004;SDS011;17676;52.254;4.490;2024-02-28T07:55:35;28.90;;;21.35;;
31004;SDS011;17676;52.254;4.490;2024-02-28T07:58:01;29.23;;;21.52;;
31004;SDS011;17676;52.254;4.490;2024-02-28T08:00:28;30.05;;;19.80;;
31004;SDS011;17676;52.254;4.490;2024-02-28T08:02:56;27.77;;;20.80;;
31004;SDS011;17676;52.254;4.490;2024-02-28T08:05:23;26.23;;;19.50;;
31004;SDS011;17676;52.254;4.490;2024-02-28T08:07:50;27.13;;;19.98;;
31004;SDS011;17676;52.254;4.490;2024-02-28T08:10:17;22.67;;;19.85;;
31004;SDS011;17676;52.254;4.490;2024-02-28T08:12:43;24.17;;;18.70;;
31004;SDS011;17676;52.254;4.490;2024-02-28T08:15:10;23.00;;;19.67;;
31004;SDS011;17676;52.254;4.490;2024-02-28T08:17:37;25.20;;;18.55;;
31004;SDS011;17676;52.254;4.490;2024-02-28T08:20:04;25.40;;;18.25;;
31004;SDS011;17676;52.254;4.490;2024-02-28T08:22:31;21.33;;;18.48;;
31004;SDS011;17676;52.254;4.490;2024-02-28T08:24:58;25.08;;;17.65;;
31004;SDS011;17676;52.254;4.490;2024-02-28T08:27:25;23.25;;;17.67;;
31004;SDS011;17676;52.254;4.490;2024-02-28T08:29:54;23.77;;;18.23;;
31004;SDS011;17676;52.254;4.490;2024-02-28T08:32:21;23.08;;;18.45;;
31004;SDS011;17676;52.254;4.490;2024-02-28T08:34:48;23.58;;;18.35;;
31004;SDS011;17676;52.254;4.490;2024-02-28T08:37:20;25.42;;;18.23;;
31004;SDS011;17676;52.254;4.490;2024-02-28T08:39:48;23.63;;;18.13;;
31004;SDS011;17676;52.254;4.490;2024-02-28T08:42:14;24.52;;;19.63;;
31004;SDS011;17676;52.254;4.490;2024-02-28T08:44:41;26.38;;;17.85;;
31004;SDS011;17676;52.254;4.490;2024-02-28T08:47:08;22.75;;;18.10;;
31004;SDS011;17676;52.254;4.490;2024-02-28T08:49:35;23.80;;;17.60;;
31004;SDS011;17676;52.254;4.490;2024-02-28T08:52:02;21.38;;;17.70;;
31004;SDS011;17676;52.254;4.490;2024-02-28T08:54:29;23.58;;;17.73;;
31004;SDS011;17676;52.254;4.490;2024-02-28T08:56:56;28.83;;;19.10;;
31004;SDS011;17676;52.254;4.490;2024-02-28T08:59:29;26.40;;;17.88;;
31004;SDS011;17676;52.254;4.490;2024-02-28T09:01:56;25.92;;;20.52;;
31004;SDS011;17676;52.254;4.490;2024-02-28T09:04:22;27.05;;;21.05;;
31004;SDS011;17676;52.254;4.490;2024-02-28T09:06:49;28.55;;;21.08;;
31004;SDS011;17676;52.254;4.490;2024-02-28T09:09:16;24.02;;;19.13;;
31004;SDS011;17676;52.254;4.490;2024-02-28T09:11:43;22.45;;;18.73;;
31004;SDS011;17676;52.254;4.490;2024-02-28T09:14:12;25.08;;;19.35;;
31004;SDS011;17676;52.254;4.490;2024-02-28T09:16:39;33.45;;;20.13;;
31004;SDS011;17676;52.254;4.490;2024-02-28T09:19:05;22.33;;;18.67;;
31004;SDS011;17676;52.254;4.490;2024-02-28T09:21:32;25.73;;;19.58;;
31004;SDS011;17676;52.254;4.490;2024-02-28T09:23:59;28.60;;;19.58;;
31004;SDS011;17676;52.254;4.490;2024-02-28T09:26:25;21.85;;;19.38;;
31004;SDS011;17676;52.254;4.490;2024-02-28T09:28:53;24.35;;;19.80;;
31004;SDS011;17676;52.254;4.490;2024-02-28T09:31:19;28.67;;;19.40;;
31004;SDS011;17676;52.254;4.490;2024-02-28T09:33:46;23.52;;;18.65;;
31004;SDS011;17676;52.254;4.490;2024-02-28T09:36:13;24.80;;;20.05;;
31004;SDS011;17676;52.254;4.490;2024-02-28T09:38:40;22.48;;;19.25;;
31004;SDS011;17676;52.254;4.490;2024-02-28T09:41:08;24.58;;;18.42;;
31004;SDS011;17676;52.254;4.490;2024-02-28T09:43:41;27.60;;;19.65;;
31004;SDS011;17676;52.254;4.490;2024-02-28T09:46:08;24.00;;;18.73;;
31004;SDS011;17676;52.254;4.490;2024-02-28T09:48:39;23.17;;;19.27;;
31004;SDS011;17676;52.254;4.490;2024-02-28T09:51:08;25.67;;;18.30;;
31004;SDS011;17676;52.254;4.490;2024-02-28T09:53:36;21.73;;;18.63;;
31004;SDS011;17676;52.254;4.490;2024-02-28T09:56:03;21.98;;;19.10;;
31004;SDS011;17676;52.254;4.490;2024-02-28T09:58:32;23.02;;;18.30;;
31004;SDS011;17676;52.254;4.490;2024-02-28T10:01:01;20.10;;;17.30;;
31004;SDS011;17676;52.254;4.490;2024-02-28T10:03:30;21.75;;;15.30;;
31004;SDS011;17676;52.254;4.490;2024-02-28T10:05:58;21.65;;;15.40;;
31004;SDS011;17676;52.254;4.490;2024-02-28T10:08:30;17.65;;;15.35;;
31004;SDS011;17676;52.254;4.490;2024-02-28T10:10:58;17.48;;;14.75;;
31004;SDS011;17676;52.254;4.490;2024-02-28T10:13:25;23.38;;;14.88;;
31004;SDS011;17676;52.254;4.490;2024-02-28T10:15:52;17.65;;;14.85;;
31004;SDS011;17676;52.254;4.490;2024-02-28T10:18:20;17.17;;;14.15;;
31004;SDS011;17676;52.254;4.490;2024-02-28T10:20:47;18.85;;;13.95;;
31004;SDS011;17676;52.254;4.490;2024-02-28T10:23:14;15.38;;;13.50;;
31004;SDS011;17676;52.254;4.490;2024-02-28T10:25:43;19.73;;;12.82;;
31004;SDS011;17676;52.254;4.490;2024-02-28T10:28:22;17.48;;;13.90;;
31004;SDS011;17676;52.254;4.490;2024-02-28T10:30:49;15.25;;;13.75;;
31004;SDS011;17676;52.254;4.490;2024-02-28T10:33:16;15.50;;;13.68;;
31004;SDS011;17676;52.254;4.490;2024-02-28T10:35:43;17.45;;;15.52;;
31004;SDS011;17676;52.254;4.490;2024-02-28T10:38:11;18.83;;;15.93;;
31004;SDS011;17676;52.254;4.490;2024-02-28T10:40:40;17.38;;;14.80;;
31004;SDS011;17676;52.254;4.490;2024-02-28T10:43:10;20.45;;;16.58;;
31004;SDS011;17676;52.254;4.490;2024-02-28T10:45:38;18.23;;;16.42;;
31004;SDS011;17676;52.254;4.490;2024-02-28T10:48:26;23.10;;;16.92;;
31004;SDS011;17676;52.254;4.490;2024-02-28T10:50:53;20.77;;;17.00;;
31004;SDS011;17676;52.254;4.490;2024-02-28T10:53:29;19.00;;;17.00;;
31004;SDS011;17676;52.254;4.490;2024-02-28T10:56:03;21.85;;;17.60;;
31004;SDS011;17676;52.254;4.490;2024-02-28T10:58:34;20.67;;;16.95;;
31004;SDS011;17676;52.254;4.490;2024-02-28T11:01:05;22.05;;;17.02;;
31004;SDS011;17676;52.254;4.490;2024-02-28T11:03:32;20.83;;;17.17;;
31004;SDS011;17676;52.254;4.490;2024-02-28T11:05:59;21.17;;;18.10;;
31004;SDS011;17676;52.254;4.490;2024-02-28T11:08:27;21.80;;;17.83;;
31004;SDS011;17676;52.254;4.490;2024-02-28T11:10:56;20.77;;;18.58;;
31004;SDS011;17676;52.254;4.490;2024-02-28T11:13:23;22.27;;;18.00;;
31004;SDS011;17676;52.254;4.490;2024-02-28T11:15:51;21.40;;;18.33;;
31004;SDS011;17676;52.254;4.490;2024-02-28T11:18:18;20.70;;;17.08;;
31004;SDS011;17676;52.254;4.490;2024-02-28T11:20:45;19.95;;;17.25;;
31004;SDS011;17676;52.254;4.490;2024-02-28T11:23:17;22.67;;;18.15;;
31004;SDS011;17676;52.254;4.490;2024-02-28T11:25:44;22.85;;;18.00;;
31004;SDS011;17676;52.254;4.490;2024-02-28T11:28:11;20.45;;;18.27;;
31004;SDS011;17676;52.254;4.490;2024-02-28T11:30:37;23.13;;;18.02;;
31004;SDS011;17676;52.254;4.490;2024-02-28T11:33:04;29.83;;;18.55;;
31004;SDS011;17676;52.254;4.490;2024-02-28T11:35:32;22.85;;;17.77;;
31004;SDS011;17676;52.254;4.490;2024-02-28T11:37:59;21.17;;;17.80;;
31004;SDS011;17676;52.254;4.490;2024-02-28T11:40:26;20.67;;;18.38;;
31004;SDS011;17676;52.254;4.490;2024-02-28T11:42:56;22.75;;;19.02;;
31004;SDS011;17676;52.254;4.490;2024-02-28T11:45:24;23.20;;;18.13;;
31004;SDS011;17676;52.254;4.490;2024-02-28T11:47:52;21.05;;;18.77;;
31004;SDS011;17676;52.254;4.490;2024-02-28T11:50:18;19.70;;;17.65;;
31004;SDS011;17676;52.254;4.490;2024-02-28T11:52:45;21.15;;;18.88;;
31004;SDS011;17676;52.254;4.490;2024-02-28T11:55:12;22.15;;;19.13;;
31004;SDS011;17676;52.254;4.490;2024-02-28T11:57:39;20.63;;;18.58;;
31004;SDS011;17676;52.254;4.490;2024-02-28T12:00:07;23.27;;;19.13;;
31004;SDS011;17676;52.254;4.490;2024-02-28T12:02:35;20.27;;;18.27;;
31004;SDS011;17676;52.254;4.490;2024-02-28T12:05:02;22.83;;;20.17;;
31004;SDS011;17676;52.254;4.490;2024-02-28T12:07:31;23.17;;;18.00;;
31004;SDS011;17676;52.254;4.490;2024-02-28T12:09:58;22.88;;;19.35;;
31004;SDS011;17676;52.254;4.490;2024-02-28T12:12:29;22.27;;;19.95;;
31004;SDS011;17676;52.254;4.490;2024-02-28T12:14:59;24.90;;;19.42;;
31004;SDS011;17676;52.254;4.490;2024-02-28T12:17:26;22.45;;;19.30;;
31004;SDS011;17676;52.254;4.490;2024-02-28T12:19:53;21.30;;;19.23;;
31004;SDS011;17676;52.254;4.490;2024-02-28T12:22:22;21.35;;;18.77;;
31004;SDS011;17676;52.254;4.490;2024-02-28T12:24:48;19.92;;;18.02;;
31004;SDS011;17676;52.254;4.490;2024-02-28T12:27:15;19.63;;;17.70;;
31004;SDS011;17676;52.254;4.490;2024-02-28T12:29:42;20.48;;;18.23;;
31004;SDS011;17676;52.254;4.490;2024-02-28T12:32:08;20.45;;;18.13;;
31004;SDS011;17676;52.254;4.490;2024-02-28T12:34:35;20.33;;;16.75;;
31004;SDS011;17676;52.254;4.490;2024-02-28T12:37:02;21.63;;;18.63;;
31004;SDS011;17676;52.254;4.490;2024-02-28T12:39:30;22.85;;;18.80;;
31004;SDS011;17676;52.254;4.490;2024-02-28T12:42:01;22.02;;;18.75;;
31004;SDS011;17676;52.254;4.490;2024-02-28T12:44:27;23.42;;;19.33;;
31004;SDS011;17676;52.254;4.490;2024-02-28T12:46:54;23.48;;;18.90;;
31004;SDS011;17676;52.254;4.490;2024-02-28T12:49:21;22.83;;;18.23;;
31004;SDS011;17676;52.254;4.490;2024-02-28T12:51:47;24.98;;;19.10;;
31004;SDS011;17676;52.254;4.490;2024-02-28T12:54:15;22.35;;;19.95;;
31004;SDS011;17676;52.254;4.490;2024-02-28T12:56:42;24.45;;;19.63;;
31004;SDS011;17676;52.254;4.490;2024-02-28T12:59:12;28.00;;;19.00;;
31004;SDS011;17676;52.254;4.490;2024-02-28T13:01:39;27.10;;;19.48;;
31004;SDS011;17676;52.254;4.490;2024-02-28T13:04:06;28.80;;;19.15;;
31004;SDS011;17676;52.254;4.490;2024-02-28T13:06:33;27.40;;;19.25;;
31004;SDS011;17676;52.254;4.490;2024-02-28T13:09:00;28.30;;;21.08;;
31004;SDS011;17676;52.254;4.490;2024-02-28T13:11:26;29.45;;;21.42;;
31004;SDS011;17676;52.254;4.490;2024-02-28T13:13:53;27.70;;;22.10;;
31004;SDS011;17676;52.254;4.490;2024-02-28T13:16:20;31.63;;;23.33;;
31004;SDS011;17676;52.254;4.490;2024-02-28T13:18:48;27.75;;;19.75;;
31004;SDS011;17676;52.254;4.490;2024-02-28T13:21:15;21.00;;;17.38;;
31004;SDS011;17676;52.254;4.490;2024-02-28T13:23:42;22.77;;;18.55;;
31004;SDS011;17676;52.254;4.490;2024-02-28T13:26:08;21.05;;;18.77;;
31004;SDS011;17676;52.254;4.490;2024-02-28T13:28:35;22.50;;;19.55;;
31004;SDS011;17676;52.254;4.490;2024-02-28T13:31:03;24.13;;;17.85;;
31004;SDS011;17676;52.254;4.490;2024-02-28T13:33:32;18.50;;;15.23;;
31004;SDS011;17676;52.254;4.490;2024-02-28T13:35:59;18.50;;;14.45;;
31004;SDS011;17676;52.254;4.490;2024-02-28T13:38:26;16.27;;;13.40;;
31004;SDS011;17676;52.254;4.490;2024-02-28T13:40:53;18.17;;;13.75;;
31004;SDS011;17676;52.254;4.490;2024-02-28T13:43:19;18.75;;;14.13;;
31004;SDS011;17676;52.254;4.490;2024-02-28T13:45:47;17.58;;;15.50;;
31004;SDS011;17676;52.254;4.490;2024-02-28T13:48:26;21.42;;;15.43;;
31004;SDS011;17676;52.254;4.490;2024-02-28T13:50:55;18.42;;;14.80;;
31004;SDS011;17676;52.254;4.490;2024-02-28T13:53:22;19.02;;;15.50;;
31004;SDS011;17676;52.254;4.490;2024-02-28T13:55:48;19.75;;;17.60;;
31004;SDS011;17676;52.254;4.490;2024-02-28T13:58:15;21.55;;;19.25;;
31004;SDS011;17676;52.254;4.490;2024-02-28T14:00:45;23.98;;;18.35;;
31004;SDS011;17676;52.254;4.490;2024-02-28T14:03:13;21.98;;;18.63;;
31004;SDS011;17676;52.254;4.490;2024-02-28T14:05:41;24.60;;;19.92;;
31004;SDS011;17676;52.254;4.490;2024-02-28T14:08:07;21.67;;;18.77;;
31004;SDS011;17676;52.254;4.490;2024-02-28T14:10:34;21.55;;;19.35;;
31004;SDS011;17676;52.254;4.490;2024-02-28T14:13:01;23.27;;;19.35;;
31004;SDS011;17676;52.254;4.490;2024-02-28T14:15:29;20.58;;;18.23;;
31004;SDS011;17676;52.254;4.490;2024-02-28T14:17:56;20.42;;;17.88;;
31004;SDS011;17676;52.254;4.490;2024-02-28T14:20:23;21.30;;;19.10;;
31004;SDS011;17676;52.254;4.490;2024-02-28T14:22:49;23.42;;;19.73;;
31004;SDS011;17676;52.254;4.490;2024-02-28T14:25:18;21.60;;;18.85;;
31004;SDS011;17676;52.254;4.490;2024-02-28T14:27:47;22.83;;;19.65;;
31004;SDS011;17676;52.254;4.490;2024-02-28T14:30:14;23.27;;;20.85;;